sensor_id;sensor_type;location;lat;lon;timestamp;temperature;humidity
65582;DHT22;52231;40.090;18.348;2023-07-24T00:01:35;27.60;77.90
65582;DHT22;52231;40.090;18.348;2023-07-24T00:04:03;27.60;78.10
65582;DHT22;52231;40.090;18.348;2023-07-24T00:06:31;27.50;78.20
65582;DHT22;52231;40.090;18.348;2023-07-24T00:08:59;27.50;78.30
65582;DHT22;52231;40.090;18.348;2023-07-24T00:11:29;27.40;78.20
65582;DHT22;52231;40.090;18.348;2023-07-24T00:13:58;27.30;78.30
65582;DHT22;52231;40.090;18.348;2023-07-24T00:16:27;27.30;78.90
65582;DHT22;52231;40.090;18.348;2023-07-24T00:18:55;27.30;79.10
65582;DHT22;52231;40.090;18.348;2023-07-24T00:21:23;27.30;79.00
65582;DHT22;52231;40.090;18.348;2023-07-24T00:23:51;27.20;79.00
65582;DHT22;52231;40.090;18.348;2023-07-24T00:26:19;27.10;79.10
65582;DHT22;52231;40.090;18.348;2023-07-24T00:28:47;27.10;79.20
65582;DHT22;52231;40.090;18.348;2023-07-24T00:31:16;27.10;79.10
65582;DHT22;52231;40.090;18.348;2023-07-24T00:33:44;27.10;79.20
65582;DHT22;52231;40.090;18.348;2023-07-24T00:36:12;27.10;79.10
65582;DHT22;52231;40.090;18.348;2023-07-24T00:38:40;27.10;79.00
65582;DHT22;52231;40.090;18.348;2023-07-24T00:41:08;27.00;78.80
65582;DHT22;52231;40.090;18.348;2023-07-24T00:43:36;27.00;78.90
65582;DHT22;52231;40.090;18.348;2023-07-24T00:46:05;26.80;79.00
65582;DHT22;52231;40.090;18.348;2023-07-24T00:48:33;26.80;79.40
65582;DHT22;52231;40.090;18.348;2023-07-24T00:51:01;26.80;79.70
65582;DHT22;52231;40.090;18.348;2023-07-24T00:53:30;26.70;80.00
65582;DHT22;52231;40.090;18.348;2023-07-24T00:55:58;26.70;80.30
65582;DHT22;52231;40.090;18.348;2023-07-24T00:58:28;26.60;80.10
65582;DHT22;52231;40.090;18.348;2023-07-24T01:00:57;26.60;80.10
65582;DHT22;52231;40.090;18.348;2023-07-24T01:03:34;26.60;80.00
65582;DHT22;52231;40.090;18.348;2023-07-24T01:06:04;26.50;80.30
65582;DHT22;52231;40.090;18.348;2023-07-24T01:08:32;26.40;80.80
65582;DHT22;52231;40.090;18.348;2023-07-24T01:11:02;26.30;81.00
65582;DHT22;52231;40.090;18.348;2023-07-24T01:13:36;26.30;81.20
65582;DHT22;52231;40.090;18.348;2023-07-24T01:16:16;26.30;81.30
65582;DHT22;52231;40.090;18.348;2023-07-24T01:18:47;26.30;81.30
65582;DHT22;52231;40.090;18.348;2023-07-24T01:21:18;26.20;81.50
65582;DHT22;52231;40.090;18.348;2023-07-24T01:24:03;26.30;81.60
65582;DHT22;52231;40.090;18.348;2023-07-24T01:26:38;26.20;81.70
65582;DHT22;52231;40.090;18.348;2023-07-24T01:29:06;26.30;81.90
65582;DHT22;52231;40.090;18.348;2023-07-24T01:31:34;26.30;81.90
65582;DHT22;52231;40.090;18.348;2023-07-24T01:34:02;26.20;81.70
65582;DHT22;52231;40.090;18.348;2023-07-24T01:36:31;26.20;81.50
65582;DHT22;52231;40.090;18.348;2023-07-24T01:38:59;26.10;81.40
65582;DHT22;52231;40.090;18.348;2023-07-24T01:41:28;26.10;81.60
65582;DHT22;52231;40.090;18.348;2023-07-24T01:43:59;26.10;81.90
65582;DHT22;52231;40.090;18.348;2023-07-24T01:46:28;26.10;82.00
65582;DHT22;52231;40.090;18.348;2023-07-24T01:48:56;26.00;81.80
65582;DHT22;52231;40.090;18.348;2023-07-24T01:51:27;26.00;81.60
65582;DHT22;52231;40.090;18.348;2023-07-24T01:53:56;26.00;81.50
65582;DHT22;52231;40.090;18.348;2023-07-24T01:56:24;26.00;81.40
65582;DHT22;52231;40.090;18.348;2023-07-24T01:58:52;26.00;81.40
65582;DHT22;52231;40.090;18.348;2023-07-24T02:01:21;26.00;81.10
65582;DHT22;52231;40.090;18.348;2023-07-24T02:03:49;26.00;81.00
65582;DHT22;52231;40.090;18.348;2023-07-24T02:06:21;25.90;81.10
65582;DHT22;52231;40.090;18.348;2023-07-24T02:08:49;25.90;81.10
65582;DHT22;52231;40.090;18.348;2023-07-24T02:11:19;25.90;81.10
65582;DHT22;52231;40.090;18.348;2023-07-24T02:13:47;25.90;81.00
65582;DHT22;52231;40.090;18.348;2023-07-24T02:16:15;25.90;81.10
65582;DHT22;52231;40.090;18.348;2023-07-24T02:18:45;25.90;81.40
65582;DHT22;52231;40.090;18.348;2023-07-24T02:21:14;25.90;81.60
65582;DHT22;52231;40.090;18.348;2023-07-24T02:23:43;25.90;81.80
65582;DHT22;52231;40.090;18.348;2023-07-24T02:26:11;25.90;82.20
65582;DHT22;52231;40.090;18.348;2023-07-24T02:28:39;25.90;82.30
65582;DHT22;52231;40.090;18.348;2023-07-24T02:31:07;26.00;82.50
65582;DHT22;52231;40.090;18.348;2023-07-24T02:33:37;26.10;82.70
65582;DHT22;52231;40.090;18.348;2023-07-24T02:36:07;26.20;82.60
65582;DHT22;52231;40.090;18.348;2023-07-24T02:38:35;26.30;83.00
65582;DHT22;52231;40.090;18.348;2023-07-24T02:41:07;26.30;83.30
65582;DHT22;52231;40.090;18.348;2023-07-24T02:43:36;26.40;83.60
65582;DHT22;52231;40.090;18.348;2023-07-24T02:46:04;26.40;83.70
65582;DHT22;52231;40.090;18.348;2023-07-24T02:48:33;26.40;84.00
65582;DHT22;52231;40.090;18.348;2023-07-24T02:51:01;26.40;84.60
65582;DHT22;52231;40.090;18.348;2023-07-24T02:53:29;26.40;85.20
65582;DHT22;52231;40.090;18.348;2023-07-24T02:55:58;26.40;85.30
65582;DHT22;52231;40.090;18.348;2023-07-24T02:58:26;26.40;85.90
65582;DHT22;52231;40.090;18.348;2023-07-24T03:01:02;26.50;86.30
65582;DHT22;52231;40.090;18.348;2023-07-24T03:03:30;26.40;86.30
65582;DHT22;52231;40.090;18.348;2023-07-24T03:05:59;26.50;86.50
65582;DHT22;52231;40.090;18.348;2023-07-24T03:08:27;26.40;86.40
65582;DHT22;52231;40.090;18.348;2023-07-24T03:10:56;26.30;86.50
65582;DHT22;52231;40.090;18.348;2023-07-24T03:13:26;26.30;87.00
65582;DHT22;52231;40.090;18.348;2023-07-24T03:15:56;26.30;87.10
65582;DHT22;52231;40.090;18.348;2023-07-24T03:18:25;26.30;87.20
65582;DHT22;52231;40.090;18.348;2023-07-24T03:20:54;26.20;87.30
65582;DHT22;52231;40.090;18.348;2023-07-24T03:23:24;26.20;87.40
65582;DHT22;52231;40.090;18.348;2023-07-24T03:25:53;26.20;87.70
65582;DHT22;52231;40.090;18.348;2023-07-24T03:28:21;26.10;87.80
65582;DHT22;52231;40.090;18.348;2023-07-24T03:30:54;26.10;87.80
65582;DHT22;52231;40.090;18.348;2023-07-24T03:33:22;26.00;87.70
65582;DHT22;52231;40.090;18.348;2023-07-24T03:35:51;26.00;88.00
65582;DHT22;52231;40.090;18.348;2023-07-24T03:38:19;26.00;88.00
65582;DHT22;52231;40.090;18.348;2023-07-24T03:40:51;25.90;87.90
65582;DHT22;52231;40.090;18.348;2023-07-24T03:43:19;25.90;88.30
65582;DHT22;52231;40.090;18.348;2023-07-24T03:45:47;25.90;88.20
65582;DHT22;52231;40.090;18.348;2023-07-24T03:48:17;26.00;88.60
65582;DHT22;52231;40.090;18.348;2023-07-24T03:50:45;26.10;88.60
65582;DHT22;52231;40.090;18.348;2023-07-24T03:53:13;26.10;88.70
65582;DHT22;52231;40.090;18.348;2023-07-24T03:55:42;26.20;88.60
65582;DHT22;52231;40.090;18.348;2023-07-24T03:58:11;26.20;88.40
65582;DHT22;52231;40.090;18.348;2023-07-24T04:00:39;26.20;88.10
65582;DHT22;52231;40.090;18.348;2023-07-24T04:03:09;26.30;87.60
65582;DHT22;52231;40.090;18.348;2023-07-24T04:05:38;26.30;87.00
65582;DHT22;52231;40.090;18.348;2023-07-24T04:08:06;26.20;86.70
65582;DHT22;52231;40.090;18.348;2023-07-24T04:10:36;26.30;86.60
65582;DHT22;52231;40.090;18.348;2023-07-24T04:13:04;26.40;86.90
65582;DHT22;52231;40.090;18.348;2023-07-24T04:15:33;26.60;87.00
65582;DHT22;52231;40.090;18.348;2023-07-24T04:18:02;26.70;86.70
65582;DHT22;52231;40.090;18.348;2023-07-24T04:20:30;26.80;86.30
65582;DHT22;52231;40.090;18.348;2023-07-24T04:22:58;26.80;86.20
65582;DHT22;52231;40.090;18.348;2023-07-24T04:25:27;26.90;85.30
65582;DHT22;52231;40.090;18.348;2023-07-24T04:27:59;27.00;84.50
65582;DHT22;52231;40.090;18.348;2023-07-24T04:30:27;27.20;84.00
65582;DHT22;52231;40.090;18.348;2023-07-24T04:32:55;27.30;83.70
65582;DHT22;52231;40.090;18.348;2023-07-24T04:35:27;27.60;83.20
65582;DHT22;52231;40.090;18.348;2023-07-24T04:37:55;28.10;82.30
65582;DHT22;52231;40.090;18.348;2023-07-24T04:40:25;28.40;81.10
65582;DHT22;52231;40.090;18.348;2023-07-24T04:42:55;28.90;79.50
65582;DHT22;52231;40.090;18.348;2023-07-24T04:45:26;29.30;78.60
65582;DHT22;52231;40.090;18.348;2023-07-24T04:47:54;29.60;77.70
65582;DHT22;52231;40.090;18.348;2023-07-24T04:50:23;29.90;76.50
65582;DHT22;52231;40.090;18.348;2023-07-24T04:52:51;30.20;75.50
65582;DHT22;52231;40.090;18.348;2023-07-24T04:55:19;30.40;74.70
65582;DHT22;52231;40.090;18.348;2023-07-24T04:58:10;30.60;74.30
65582;DHT22;52231;40.090;18.348;2023-07-24T05:00:38;30.80;74.00
65582;DHT22;52231;40.090;18.348;2023-07-24T05:03:06;30.80;74.00
65582;DHT22;52231;40.090;18.348;2023-07-24T05:05:39;31.00;73.80
65582;DHT22;52231;40.090;18.348;2023-07-24T05:08:09;31.00;73.90
65582;DHT22;52231;40.090;18.348;2023-07-24T05:10:37;31.20;73.90
65582;DHT22;52231;40.090;18.348;2023-07-24T05:13:06;31.30;73.60
65582;DHT22;52231;40.090;18.348;2023-07-24T05:15:34;31.50;73.60
65582;DHT22;52231;40.090;18.348;2023-07-24T05:18:03;31.60;73.00
65582;DHT22;52231;40.090;18.348;2023-07-24T05:20:31;31.80;72.90
65582;DHT22;52231;40.090;18.348;2023-07-24T05:22:59;32.00;72.50
65582;DHT22;52231;40.090;18.348;2023-07-24T05:25:28;32.20;72.10
65582;DHT22;52231;40.090;18.348;2023-07-24T05:28:00;32.30;71.80
65582;DHT22;52231;40.090;18.348;2023-07-24T05:30:28;32.40;71.40
65582;DHT22;52231;40.090;18.348;2023-07-24T05:32:57;32.60;71.30
65582;DHT22;52231;40.090;18.348;2023-07-24T05:35:26;32.90;70.60
65582;DHT22;52231;40.090;18.348;2023-07-24T05:37:59;33.00;69.80
65582;DHT22;52231;40.090;18.348;2023-07-24T05:40:27;33.10;67.80
65582;DHT22;52231;40.090;18.348;2023-07-24T05:42:56;33.30;67.70
65582;DHT22;52231;40.090;18.348;2023-07-24T05:45:24;33.40;66.30
65582;DHT22;52231;40.090;18.348;2023-07-24T05:47:53;33.50;65.30
65582;DHT22;52231;40.090;18.348;2023-07-24T05:50:21;33.80;65.40
65582;DHT22;52231;40.090;18.348;2023-07-24T05:52:51;34.20;64.40
65582;DHT22;52231;40.090;18.348;2023-07-24T05:55:19;34.40;61.70
65582;DHT22;52231;40.090;18.348;2023-07-24T05:57:48;34.70;59.40
65582;DHT22;52231;40.090;18.348;2023-07-24T06:00:16;34.80;56.80
65582;DHT22;52231;40.090;18.348;2023-07-24T06:02:46;35.10;57.20
65582;DHT22;52231;40.090;18.348;2023-07-24T06:05:14;35.40;56.00
65582;DHT22;52231;40.090;18.348;2023-07-24T06:07:43;35.50;54.10
65582;DHT22;52231;40.090;18.348;2023-07-24T06:10:11;35.70;53.60
65582;DHT22;52231;40.090;18.348;2023-07-24T06:12:40;35.90;53.50
65582;DHT22;52231;40.090;18.348;2023-07-24T06:15:09;36.10;52.70
65582;DHT22;52231;40.090;18.348;2023-07-24T06:17:37;36.20;51.60
65582;DHT22;52231;40.090;18.348;2023-07-24T06:20:07;36.20;51.20
65582;DHT22;52231;40.090;18.348;2023-07-24T06:22:35;36.30;50.50
65582;DHT22;52231;40.090;18.348;2023-07-24T06:25:05;36.20;50.70
65582;DHT22;52231;40.090;18.348;2023-07-24T06:27:33;36.20;50.00
65582;DHT22;52231;40.090;18.348;2023-07-24T06:30:02;36.10;50.30
65582;DHT22;52231;40.090;18.348;2023-07-24T06:32:36;36.20;49.70
65582;DHT22;52231;40.090;18.348;2023-07-24T06:35:05;36.40;49.40
65582;DHT22;52231;40.090;18.348;2023-07-24T06:37:34;36.70;49.00
65582;DHT22;52231;40.090;18.348;2023-07-24T06:40:03;36.80;49.00
65582;DHT22;52231;40.090;18.348;2023-07-24T06:42:32;37.10;48.30
65582;DHT22;52231;40.090;18.348;2023-07-24T06:45:01;37.40;46.70
65582;DHT22;52231;40.090;18.348;2023-07-24T06:47:31;37.60;46.40
65582;DHT22;52231;40.090;18.348;2023-07-24T06:50:00;37.60;46.20
65582;DHT22;52231;40.090;18.348;2023-07-24T06:52:33;37.70;45.00
65582;DHT22;52231;40.090;18.348;2023-07-24T06:55:01;37.90;44.80
65582;DHT22;52231;40.090;18.348;2023-07-24T06:57:33;38.10;45.40
65582;DHT22;52231;40.090;18.348;2023-07-24T07:00:02;38.30;45.60
65582;DHT22;52231;40.090;18.348;2023-07-24T07:02:31;38.30;41.90
65582;DHT22;52231;40.090;18.348;2023-07-24T07:05:00;38.30;42.10
65582;DHT22;52231;40.090;18.348;2023-07-24T07:07:28;38.50;41.50
65582;DHT22;52231;40.090;18.348;2023-07-24T07:09:56;38.80;41.50
65582;DHT22;52231;40.090;18.348;2023-07-24T07:12:24;39.10;40.20
65582;DHT22;52231;40.090;18.348;2023-07-24T07:14:53;39.40;39.40
65582;DHT22;52231;40.090;18.348;2023-07-24T07:17:21;39.80;38.50
65582;DHT22;52231;40.090;18.348;2023-07-24T07:19:49;40.00;38.60
65582;DHT22;52231;40.090;18.348;2023-07-24T07:22:17;40.20;37.30
65582;DHT22;52231;40.090;18.348;2023-07-24T07:24:45;40.20;36.20
65582;DHT22;52231;40.090;18.348;2023-07-24T07:27:14;40.10;35.80
65582;DHT22;52231;40.090;18.348;2023-07-24T07:29:45;40.30;34.60
65582;DHT22;52231;40.090;18.348;2023-07-24T07:32:13;40.70;34.50
65582;DHT22;52231;40.090;18.348;2023-07-24T07:34:41;40.90;35.00
65582;DHT22;52231;40.090;18.348;2023-07-24T07:37:09;41.10;33.70
65582;DHT22;52231;40.090;18.348;2023-07-24T07:39:38;41.40;34.00
65582;DHT22;52231;40.090;18.348;2023-07-24T07:42:06;41.60;32.70
65582;DHT22;52231;40.090;18.348;2023-07-24T07:44:42;41.80;33.20
65582;DHT22;52231;40.090;18.348;2023-07-24T07:47:11;42.00;32.60
65582;DHT22;52231;40.090;18.348;2023-07-24T07:49:39;42.00;31.60
65582;DHT22;52231;40.090;18.348;2023-07-24T07:52:10;41.80;30.90
65582;DHT22;52231;40.090;18.348;2023-07-24T07:54:39;42.30;30.60
65582;DHT22;52231;40.090;18.348;2023-07-24T07:57:07;42.40;30.70
65582;DHT22;52231;40.090;18.348;2023-07-24T07:59:35;42.70;30.80
65582;DHT22;52231;40.090;18.348;2023-07-24T08:02:04;42.50;29.70
65582;DHT22;52231;40.090;18.348;2023-07-24T08:04:32;42.30;29.20
65582;DHT22;52231;40.090;18.348;2023-07-24T08:07:00;42.30;29.20
65582;DHT22;52231;40.090;18.348;2023-07-24T08:09:28;42.50;28.80
65582;DHT22;52231;40.090;18.348;2023-07-24T08:11:57;42.90;26.60
65582;DHT22;52231;40.090;18.348;2023-07-24T08:14:25;43.20;25.70
65582;DHT22;52231;40.090;18.348;2023-07-24T08:16:53;43.20;26.10
65582;DHT22;52231;40.090;18.348;2023-07-24T08:19:22;43.30;25.70
65582;DHT22;52231;40.090;18.348;2023-07-24T08:21:50;43.60;25.10
65582;DHT22;52231;40.090;18.348;2023-07-24T08:24:18;43.90;25.50
65582;DHT22;52231;40.090;18.348;2023-07-24T08:26:47;44.00;25.30
65582;DHT22;52231;40.090;18.348;2023-07-24T08:29:15;43.90;26.80
65582;DHT22;52231;40.090;18.348;2023-07-24T08:31:43;44.00;25.20
65582;DHT22;52231;40.090;18.348;2023-07-24T08:34:11;44.20;25.00
65582;DHT22;52231;40.090;18.348;2023-07-24T08:36:40;44.10;25.00
65582;DHT22;52231;40.090;18.348;2023-07-24T08:39:08;44.10;25.00
65582;DHT22;52231;40.090;18.348;2023-07-24T08:41:39;44.40;25.20
65582;DHT22;52231;40.090;18.348;2023-07-24T08:44:08;44.40;25.40
65582;DHT22;52231;40.090;18.348;2023-07-24T08:46:37;44.40;25.40
65582;DHT22;52231;40.090;18.348;2023-07-24T08:49:12;43.90;25.80
65582;DHT22;52231;40.090;18.348;2023-07-24T08:51:41;43.70;25.70
65582;DHT22;52231;40.090;18.348;2023-07-24T08:54:11;43.60;26.30
65582;DHT22;52231;40.090;18.348;2023-07-24T08:56:40;43.60;26.00
65582;DHT22;52231;40.090;18.348;2023-07-24T08:59:09;43.70;25.90
65582;DHT22;52231;40.090;18.348;2023-07-24T09:01:40;44.00;25.20
65582;DHT22;52231;40.090;18.348;2023-07-24T09:04:08;44.40;24.80
65582;DHT22;52231;40.090;18.348;2023-07-24T09:06:37;45.00;24.40
65582;DHT22;52231;40.090;18.348;2023-07-24T09:09:15;45.40;23.90
65582;DHT22;52231;40.090;18.348;2023-07-24T09:14:23;46.00;23.00
65582;DHT22;52231;40.090;18.348;2023-07-24T09:17:09;45.80;23.10
65582;DHT22;52231;40.090;18.348;2023-07-24T09:19:57;45.50;23.70
65582;DHT22;52231;40.090;18.348;2023-07-24T09:22:25;45.40;23.30
65582;DHT22;52231;40.090;18.348;2023-07-24T09:24:56;45.60;23.40
65582;DHT22;52231;40.090;18.348;2023-07-24T09:27:27;45.90;23.20
65582;DHT22;52231;40.090;18.348;2023-07-24T09:29:56;45.90;22.60
65582;DHT22;52231;40.090;18.348;2023-07-24T09:32:28;46.10;23.10
65582;DHT22;52231;40.090;18.348;2023-07-24T09:34:56;46.50;22.30
65582;DHT22;52231;40.090;18.348;2023-07-24T09:37:30;46.40;21.90
65582;DHT22;52231;40.090;18.348;2023-07-24T09:39:58;46.60;22.10
65582;DHT22;52231;40.090;18.348;2023-07-24T09:42:37;46.80;21.80
65582;DHT22;52231;40.090;18.348;2023-07-24T09:45:11;47.10;21.60
65582;DHT22;52231;40.090;18.348;2023-07-24T09:47:40;47.40;21.20
65582;DHT22;52231;40.090;18.348;2023-07-24T09:50:12;47.50;19.80
65582;DHT22;52231;40.090;18.348;2023-07-24T09:52:41;47.30;20.20
65582;DHT22;52231;40.090;18.348;2023-07-24T09:55:12;47.30;20.00
65582;DHT22;52231;40.090;18.348;2023-07-24T09:57:44;46.80;20.00
65582;DHT22;52231;40.090;18.348;2023-07-24T10:00:13;47.10;20.10
65582;DHT22;52231;40.090;18.348;2023-07-24T10:02:42;47.20;20.10
65582;DHT22;52231;40.090;18.348;2023-07-24T10:05:11;46.60;18.10
65582;DHT22;52231;40.090;18.348;2023-07-24T10:07:39;46.40;18.50
65582;DHT22;52231;40.090;18.348;2023-07-24T10:10:09;45.90;18.90
65582;DHT22;52231;40.090;18.348;2023-07-24T10:12:37;46.10;18.90
65582;DHT22;52231;40.090;18.348;2023-07-24T10:15:06;46.40;18.90
65582;DHT22;52231;40.090;18.348;2023-07-24T10:17:39;46.40;18.50
65582;DHT22;52231;40.090;18.348;2023-07-24T10:20:10;46.40;18.90
65582;DHT22;52231;40.090;18.348;2023-07-24T10:22:41;46.40;18.90
65582;DHT22;52231;40.090;18.348;2023-07-24T10:25:10;46.60;19.10
65582;DHT22;52231;40.090;18.348;2023-07-24T10:27:43;46.60;17.80
65582;DHT22;52231;40.090;18.348;2023-07-24T10:30:12;46.30;18.00
65582;DHT22;52231;40.090;18.348;2023-07-24T10:32:46;46.10;18.10
65582;DHT22;52231;40.090;18.348;2023-07-24T10:35:16;45.70;18.10
65582;DHT22;52231;40.090;18.348;2023-07-24T10:37:45;45.50;18.20
65582;DHT22;52231;40.090;18.348;2023-07-24T10:40:21;45.70;18.40
65582;DHT22;52231;40.090;18.348;2023-07-24T10:43:13;45.50;18.50
65582;DHT22;52231;40.090;18.348;2023-07-24T10:48:11;46.20;17.80
65582;DHT22;52231;40.090;18.348;2023-07-24T10:50:44;45.90;17.80
65582;DHT22;52231;40.090;18.348;2023-07-24T10:53:20;45.70;18.20
65582;DHT22;52231;40.090;18.348;2023-07-24T10:55:50;45.80;18.00
65582;DHT22;52231;40.090;18.348;2023-07-24T10:58:19;45.70;18.10
65582;DHT22;52231;40.090;18.348;2023-07-24T11:00:47;45.60;18.20
65582;DHT22;52231;40.090;18.348;2023-07-24T11:03:16;45.70;18.20
65582;DHT22;52231;40.090;18.348;2023-07-24T11:05:46;45.70;18.20
65582;DHT22;52231;40.090;18.348;2023-07-24T11:08:16;45.60;18.10
65582;DHT22;52231;40.090;18.348;2023-07-24T11:10:52;45.70;18.10
65582;DHT22;52231;40.090;18.348;2023-07-24T11:13:25;45.40;18.20
65582;DHT22;52231;40.090;18.348;2023-07-24T11:15:54;45.30;18.70
65582;DHT22;52231;40.090;18.348;2023-07-24T11:18:23;45.30;18.20
65582;DHT22;52231;40.090;18.348;2023-07-24T11:20:56;45.00;18.70
65582;DHT22;52231;40.090;18.348;2023-07-24T11:23:25;45.10;18.50
65582;DHT22;52231;40.090;18.348;2023-07-24T11:25:54;44.80;18.50
65582;DHT22;52231;40.090;18.348;2023-07-24T11:28:22;45.10;18.90
65582;DHT22;52231;40.090;18.348;2023-07-24T11:30:50;45.70;18.90
65582;DHT22;52231;40.090;18.348;2023-07-24T11:33:21;46.00;18.40
65582;DHT22;52231;40.090;18.348;2023-07-24T11:35:50;45.90;18.40
65582;DHT22;52231;40.090;18.348;2023-07-24T11:38:18;46.00;19.10
65582;DHT22;52231;40.090;18.348;2023-07-24T11:40:47;45.90;18.90
65582;DHT22;52231;40.090;18.348;2023-07-24T11:43:20;46.00;18.70
65582;DHT22;52231;40.090;18.348;2023-07-24T11:45:50;45.50;19.20
65582;DHT22;52231;40.090;18.348;2023-07-24T11:48:23;45.50;19.60
65582;DHT22;52231;40.090;18.348;2023-07-24T11:50:54;45.60;19.90
65582;DHT22;52231;40.090;18.348;2023-07-24T11:53:27;45.80;19.90
65582;DHT22;52231;40.090;18.348;2023-07-24T11:55:59;46.10;19.10
65582;DHT22;52231;40.090;18.348;2023-07-24T11:58:30;45.70;19.40
65582;DHT22;52231;40.090;18.348;2023-07-24T12:00:58;45.40;19.30
65582;DHT22;52231;40.090;18.348;2023-07-24T12:03:28;45.20;19.30
65582;DHT22;52231;40.090;18.348;2023-07-24T12:05:58;45.00;18.70
65582;DHT22;52231;40.090;18.348;2023-07-24T12:08:35;44.70;19.00
65582;DHT22;52231;40.090;18.348;2023-07-24T12:11:16;44.80;18.90
65582;DHT22;52231;40.090;18.348;2023-07-24T12:13:47;44.90;18.90
65582;DHT22;52231;40.090;18.348;2023-07-24T12:16:17;44.40;19.70
65582;DHT22;52231;40.090;18.348;2023-07-24T12:18:46;44.50;20.00
65582;DHT22;52231;40.090;18.348;2023-07-24T12:21:14;44.30;20.00
65582;DHT22;52231;40.090;18.348;2023-07-24T12:23:42;44.30;20.80
65582;DHT22;52231;40.090;18.348;2023-07-24T12:26:10;44.20;20.70
65582;DHT22;52231;40.090;18.348;2023-07-24T12:28:39;44.20;20.50
65582;DHT22;52231;40.090;18.348;2023-07-24T12:31:07;43.90;21.00
65582;DHT22;52231;40.090;18.348;2023-07-24T12:33:35;44.40;20.10
65582;DHT22;52231;40.090;18.348;2023-07-24T12:36:04;44.40;19.90
65582;DHT22;52231;40.090;18.348;2023-07-24T12:38:32;44.60;19.70
65582;DHT22;52231;40.090;18.348;2023-07-24T12:41:00;44.80;19.20
65582;DHT22;52231;40.090;18.348;2023-07-24T12:43:29;44.70;19.40
65582;DHT22;52231;40.090;18.348;2023-07-24T12:45:57;44.50;19.50
65582;DHT22;52231;40.090;18.348;2023-07-24T12:48:25;44.50;19.30
65582;DHT22;52231;40.090;18.348;2023-07-24T12:50:54;44.70;19.60
65582;DHT22;52231;40.090;18.348;2023-07-24T12:53:24;44.50;19.60
65582;DHT22;52231;40.090;18.348;2023-07-24T12:55:52;44.30;19.60
65582;DHT22;52231;40.090;18.348;2023-07-24T12:58:21;44.10;19.50
65582;DHT22;52231;40.090;18.348;2023-07-24T13:00:49;44.00;20.30
65582;DHT22;52231;40.090;18.348;2023-07-24T13:03:18;43.90;20.60
65582;DHT22;52231;40.090;18.348;2023-07-24T13:05:47;43.90;20.50
65582;DHT22;52231;40.090;18.348;2023-07-24T13:08:16;43.80;20.70
65582;DHT22;52231;40.090;18.348;2023-07-24T13:10:50;43.80;20.70
65582;DHT22;52231;40.090;18.348;2023-07-24T13:13:19;43.50;20.70
65582;DHT22;52231;40.090;18.348;2023-07-24T13:15:47;43.60;21.00
65582;DHT22;52231;40.090;18.348;2023-07-24T13:18:17;43.40;21.30
65582;DHT22;52231;40.090;18.348;2023-07-24T13:20:54;43.70;21.50
65582;DHT22;52231;40.090;18.348;2023-07-24T13:23:22;43.90;21.30
65582;DHT22;52231;40.090;18.348;2023-07-24T13:25:52;43.60;21.00
65582;DHT22;52231;40.090;18.348;2023-07-24T13:28:21;43.30;21.40
65582;DHT22;52231;40.090;18.348;2023-07-24T13:30:49;43.10;21.50
65582;DHT22;52231;40.090;18.348;2023-07-24T13:33:17;43.30;21.30
65582;DHT22;52231;40.090;18.348;2023-07-24T13:35:47;43.00;22.10
65582;DHT22;52231;40.090;18.348;2023-07-24T13:38:16;43.00;21.60
65582;DHT22;52231;40.090;18.348;2023-07-24T13:40:46;43.10;22.00
65582;DHT22;52231;40.090;18.348;2023-07-24T13:43:14;43.30;21.50
65582;DHT22;52231;40.090;18.348;2023-07-24T13:45:44;42.90;21.90
65582;DHT22;52231;40.090;18.348;2023-07-24T13:48:12;42.80;21.20
65582;DHT22;52231;40.090;18.348;2023-07-24T13:50:40;42.90;21.00
65582;DHT22;52231;40.090;18.348;2023-07-24T13:53:11;43.20;21.00
65582;DHT22;52231;40.090;18.348;2023-07-24T13:55:40;43.00;21.20
65582;DHT22;52231;40.090;18.348;2023-07-24T13:58:08;42.80;20.90
65582;DHT22;52231;40.090;18.348;2023-07-24T14:00:37;42.50;21.40
65582;DHT22;52231;40.090;18.348;2023-07-24T14:03:05;42.40;21.20
65582;DHT22;52231;40.090;18.348;2023-07-24T14:05:34;42.30;21.20
65582;DHT22;52231;40.090;18.348;2023-07-24T14:08:07;41.90;22.00
65582;DHT22;52231;40.090;18.348;2023-07-24T14:10:36;41.50;22.10
65582;DHT22;52231;40.090;18.348;2023-07-24T14:13:05;41.30;22.80
65582;DHT22;52231;40.090;18.348;2023-07-24T14:15:33;41.40;22.60
65582;DHT22;52231;40.090;18.348;2023-07-24T14:18:02;41.60;22.80
65582;DHT22;52231;40.090;18.348;2023-07-24T14:20:30;41.60;23.10
65582;DHT22;52231;40.090;18.348;2023-07-24T14:22:59;41.60;23.20
65582;DHT22;52231;40.090;18.348;2023-07-24T14:25:27;41.60;23.50
65582;DHT22;52231;40.090;18.348;2023-07-24T14:27:56;41.70;23.30
65582;DHT22;52231;40.090;18.348;2023-07-24T14:30:25;41.50;23.20
65582;DHT22;52231;40.090;18.348;2023-07-24T14:32:53;41.30;23.50
65582;DHT22;52231;40.090;18.348;2023-07-24T14:35:21;41.30;23.90
65582;DHT22;52231;40.090;18.348;2023-07-24T14:37:50;41.30;23.90
65582;DHT22;52231;40.090;18.348;2023-07-24T14:40:19;41.10;23.80
65582;DHT22;52231;40.090;18.348;2023-07-24T14:42:47;40.90;23.80
65582;DHT22;52231;40.090;18.348;2023-07-24T14:45:16;40.70;23.90
65582;DHT22;52231;40.090;18.348;2023-07-24T14:47:44;40.30;24.10
65582;DHT22;52231;40.090;18.348;2023-07-24T14:50:12;40.30;24.30
65582;DHT22;52231;40.090;18.348;2023-07-24T14:52:41;40.30;24.30
65582;DHT22;52231;40.090;18.348;2023-07-24T14:55:12;40.20;24.10
65582;DHT22;52231;40.090;18.348;2023-07-24T14:57:40;40.30;24.70
65582;DHT22;52231;40.090;18.348;2023-07-24T15:00:09;40.20;24.70
65582;DHT22;52231;40.090;18.348;2023-07-24T15:02:37;40.10;24.90
65582;DHT22;52231;40.090;18.348;2023-07-24T15:05:06;40.00;25.40
65582;DHT22;52231;40.090;18.348;2023-07-24T15:07:34;39.90;25.70
65582;DHT22;52231;40.090;18.348;2023-07-24T15:10:03;39.70;25.80
65582;DHT22;52231;40.090;18.348;2023-07-24T15:12:31;39.50;26.20
65582;DHT22;52231;40.090;18.348;2023-07-24T15:15:02;39.40;26.50
65582;DHT22;52231;40.090;18.348;2023-07-24T15:17:30;39.40;26.80
65582;DHT22;52231;40.090;18.348;2023-07-24T15:19:59;39.20;27.20
65582;DHT22;52231;40.090;18.348;2023-07-24T15:22:27;39.10;27.40
65582;DHT22;52231;40.090;18.348;2023-07-24T15:24:55;38.90;27.70
65582;DHT22;52231;40.090;18.348;2023-07-24T15:27:23;38.80;28.30
65582;DHT22;52231;40.090;18.348;2023-07-24T15:29:52;38.70;28.80
65582;DHT22;52231;40.090;18.348;2023-07-24T15:32:20;38.50;29.10
65582;DHT22;52231;40.090;18.348;2023-07-24T15:34:49;38.30;29.30